createdAt,value
2023-05-07T00:01:36.222Z,97519.69
2023-05-07T00:04:04.742Z,97509.81
2023-05-07T00:06:34.108Z,97512.13
2023-05-07T00:09:02.564Z,97519.03
2023-05-07T00:11:32.286Z,97511.28
2023-05-07T00:14:00.901Z,97507.34
2023-05-07T00:16:29.159Z,97526.75
2023-05-07T00:18:57.420Z,97519.72
2023-05-07T00:21:27.749Z,97514.22
2023-05-07T00:23:56.021Z,97515.22
2023-05-07T00:26:24.514Z,97520.94
2023-05-07T00:28:54.125Z,97508.13
2023-05-07T00:31:22.463Z,97510.63
2023-05-07T00:33:50.733Z,97507.78
2023-05-07T00:36:19.113Z,97503.38
2023-05-07T00:38:47.376Z,97511.03
2023-05-07T00:41:15.703Z,97515.00
2023-05-07T00:43:45.256Z,97513.81
2023-05-07T00:46:15.015Z,97508.09
2023-05-07T00:48:43.294Z,97505.16
2023-05-07T00:51:12.382Z,97509.09
2023-05-07T00:53:40.857Z,97508.09
2023-05-07T00:56:09.215Z,97500.00
2023-05-07T00:58:37.440Z,97503.00
2023-05-07T01:01:06.051Z,97500.50
2023-05-07T01:03:35.802Z,97509.50
2023-05-07T01:06:04.426Z,97497.44
2023-05-07T01:08:32.820Z,97494.16
2023-05-07T01:11:01.366Z,97503.66
2023-05-07T01:13:29.790Z,97497.94
2023-05-07T01:15:58.104Z,97500.94
2023-05-07T01:18:26.882Z,97496.44
2023-05-07T01:20:56.882Z,97501.34
2023-05-07T01:23:26.451Z,97498.69
2023-05-07T01:25:55.150Z,97496.84
2023-05-07T01:28:23.385Z,97494.53
2023-05-07T01:30:54.671Z,97501.59
2023-05-07T01:33:23.795Z,97500.69
2023-05-07T01:35:53.863Z,97504.56
2023-05-07T01:38:22.409Z,97499.84
2023-05-07T01:40:52.157Z,97493.75
2023-05-07T01:43:20.378Z,97499.66
2023-05-07T01:45:50.242Z,97496.31
2023-05-07T01:48:18.520Z,97494.13
2023-05-07T01:50:46.779Z,97490.75
2023-05-07T01:53:14.933Z,97489.38
2023-05-07T01:55:43.518Z,97486.72
2023-05-07T01:58:13.130Z,97481.59
2023-05-07T02:00:42.108Z,97489.38
2023-05-07T02:03:10.541Z,97493.22
2023-05-07T02:05:39.109Z,97495.81
2023-05-07T02:08:07.483Z,97501.47
2023-05-07T02:10:35.687Z,97494.13
2023-05-07T02:13:03.994Z,97490.09
2023-05-07T02:15:33.941Z,97494.03
2023-05-07T02:18:03.153Z,97484.88
2023-05-07T02:20:31.455Z,97489.06
2023-05-07T02:22:59.608Z,97485.56
2023-05-07T02:25:27.916Z,97500.16
2023-05-07T02:27:56.409Z,97495.13
2023-05-07T02:30:24.928Z,97491.22
2023-05-07T02:32:54.639Z,97491.75
2023-05-07T02:35:23.195Z,97478.69
2023-05-07T02:37:51.470Z,97482.28
2023-05-07T02:40:19.832Z,97479.22
2023-05-07T02:42:48.105Z,97481.25
2023-05-07T02:45:16.735Z,97489.25
2023-05-07T02:47:45.041Z,97483.03
2023-05-07T02:50:15.809Z,97489.25
2023-05-07T02:52:44.028Z,97480.16
2023-05-07T02:55:12.951Z,97478.66
2023-05-07T02:57:41.170Z,97478.75
2023-05-07T03:00:14.113Z,97475.75
2023-05-07T03:02:42.675Z,97475.06
2023-05-07T03:05:11.281Z,97474.06
2023-05-07T03:07:40.975Z,97473.66
2023-05-07T03:10:09.895Z,97481.75
2023-05-07T03:12:38.320Z,97479.06
2023-05-07T03:15:07.545Z,97476.47
2023-05-07T03:17:35.784Z,97486.69
2023-05-07T03:20:04.103Z,97475.81
2023-05-07T03:22:32.416Z,97484.16
2023-05-07T03:25:02.273Z,97475.63
2023-05-07T03:27:30.518Z,97477.00
2023-05-07T03:29:58.723Z,97481.28
2023-05-07T03:32:27.537Z,97478.41
2023-05-07T03:34:55.792Z,97480.09
2023-05-07T03:37:24.055Z,97475.41
2023-05-07T03:39:52.218Z,97479.50
2023-05-07T03:42:21.850Z,97480.34
2023-05-07T03:44:50.016Z,97464.78
2023-05-07T03:47:18.296Z,97476.81
2023-05-07T03:49:46.771Z,97479.16
2023-05-07T03:52:15.662Z,97481.34
2023-05-07T03:54:43.855Z,97470.06
2023-05-07T03:57:12.179Z,97472.25
2023-05-07T03:59:41.792Z,97471.78
2023-05-07T04:02:10.400Z,97472.41
2023-05-07T04:04:38.758Z,97486.69
2023-05-07T04:07:07.011Z,97492.06
2023-05-07T04:09:35.315Z,97490.78
2023-05-07T04:12:03.592Z,97490.38
2023-05-07T04:14:33.308Z,97491.31
2023-05-07T04:17:03.905Z,97488.81
2023-05-07T04:19:32.455Z,97500.09
2023-05-07T04:22:00.631Z,97488.22
2023-05-07T04:24:28.999Z,97484.38
2023-05-07T04:26:57.508Z,97479.06
2023-05-07T04:29:25.767Z,97490.75
2023-05-07T04:31:54.057Z,97492.69
2023-05-07T04:34:23.813Z,97495.75
2023-05-07T04:36:51.998Z,97497.00
2023-05-07T04:39:20.219Z,97494.06
2023-05-07T04:41:48.461Z,97504.22
2023-05-07T04:44:16.746Z,97502.47
2023-05-07T04:46:44.934Z,97503.31
2023-05-07T04:49:13.211Z,97498.31
2023-05-07T04:51:44.990Z,97495.44
2023-05-07T04:54:13.496Z,97498.53
2023-05-07T04:56:41.724Z,97499.28
2023-05-07T04:59:10.030Z,97500.44
2023-05-07T05:01:38.326Z,97495.97
2023-05-07T05:04:06.705Z,97493.44
2023-05-07T05:06:34.957Z,97491.59
2023-05-07T05:09:06.102Z,97490.97
2023-05-07T05:11:34.331Z,97487.13
2023-05-07T05:14:03.187Z,97491.22
2023-05-07T05:16:31.447Z,97492.41
2023-05-07T05:18:59.786Z,97492.69
2023-05-07T05:21:27.968Z,97496.38
2023-05-07T05:23:56.322Z,97491.72
2023-05-07T05:26:25.934Z,97491.06
2023-05-07T05:28:54.666Z,97499.25
2023-05-07T05:31:22.947Z,97498.84
2023-05-07T05:33:51.296Z,97497.56
2023-05-07T05:36:19.573Z,97496.63
2023-05-07T05:38:47.795Z,97499.00
2023-05-07T05:41:16.112Z,97502.38
2023-05-07T05:43:45.761Z,97505.66
2023-05-07T05:46:13.986Z,97498.63
2023-05-07T05:48:42.269Z,97504.72
2023-05-07T05:51:10.491Z,97503.38
2023-05-07T05:53:39.084Z,97510.31
2023-05-07T05:56:08.326Z,97502.25
2023-05-07T05:58:36.501Z,97504.47
2023-05-07T06:01:06.432Z,97510.03
2023-05-07T06:03:34.705Z,97508.19
2023-05-07T06:06:03.361Z,97517.16
2023-05-07T06:08:32.448Z,97510.25
2023-05-07T06:11:01.136Z,97508.75
2023-05-07T06:13:29.484Z,97507.44
2023-05-07T06:15:58.016Z,97500.31
2023-05-07T06:18:27.681Z,97504.66
2023-05-07T06:20:55.953Z,97510.09
2023-05-07T06:23:24.235Z,97514.63
2023-05-07T06:25:52.896Z,97502.28
2023-05-07T06:28:21.286Z,97501.25
2023-05-07T06:30:51.335Z,97512.09
2023-05-07T06:33:20.805Z,97509.69
2023-05-07T06:35:50.980Z,97513.22
2023-05-07T06:38:19.198Z,97512.72
2023-05-07T06:40:50.734Z,97517.22
2023-05-07T06:43:18.977Z,97521.75
2023-05-07T06:45:47.279Z,97511.75
2023-05-07T06:48:16.929Z,97513.63
2023-05-07T06:50:45.207Z,97513.53
2023-05-07T06:53:14.767Z,97518.53
2023-05-07T06:55:43.319Z,97519.97
2023-05-07T06:58:11.522Z,97515.50
2023-05-07T07:00:39.794Z,97519.53
2023-05-07T07:03:08.017Z,97510.16
2023-05-07T07:05:36.608Z,97513.59
2023-05-07T07:08:04.829Z,97514.69
2023-05-07T07:10:34.740Z,97521.56
2023-05-07T07:13:03.375Z,97514.63
2023-05-07T07:15:31.783Z,97517.50
2023-05-07T07:18:00.102Z,97517.88
2023-05-07T07:20:28.481Z,97517.25
2023-05-07T07:22:56.746Z,97510.41
2023-05-07T07:25:26.005Z,97504.72
2023-05-07T07:27:57.102Z,97512.38
2023-05-07T07:30:25.584Z,97513.81
2023-05-07T07:32:53.972Z,97510.88
2023-05-07T07:35:22.354Z,97517.66
2023-05-07T07:37:54.948Z,97508.56
2023-05-07T07:40:24.890Z,97518.50
2023-05-07T07:42:53.107Z,97514.00
2023-05-07T07:45:25.295Z,97512.28
2023-05-07T07:47:53.744Z,97510.75
2023-05-07T07:50:42.924Z,97505.97
2023-05-07T07:53:15.575Z,97504.38
2023-05-07T07:55:43.921Z,97513.81
2023-05-07T07:58:14.349Z,97510.06
2023-05-07T08:00:43.990Z,97516.00
2023-05-07T08:03:12.892Z,97517.44
2023-05-07T08:05:52.511Z,97519.16
2023-05-07T08:08:23.724Z,97516.97
2023-05-07T08:10:52.586Z,97518.78
2023-05-07T08:13:21.284Z,97522.47
2023-05-07T08:15:51.325Z,97520.78
2023-05-07T08:18:19.637Z,97528.50
2023-05-07T08:20:48.251Z,97514.91
2023-05-07T08:23:16.736Z,97519.78
2023-05-07T08:25:46.021Z,97513.00
2023-05-07T08:28:14.314Z,97526.31
2023-05-07T08:30:42.732Z,97522.19
2023-05-07T08:33:12.821Z,97518.09
2023-05-07T08:35:41.133Z,97525.81
2023-05-07T08:38:33.541Z,97522.97
2023-05-07T08:41:22.969Z,97531.44
2023-05-07T08:43:52.584Z,97533.63
2023-05-07T08:46:24.074Z,97529.19
2023-05-07T08:48:53.873Z,97522.56
2023-05-07T08:51:22.636Z,97523.16
2023-05-07T08:53:51.513Z,97522.06
2023-05-07T08:56:22.460Z,97522.88
2023-05-07T08:58:51.141Z,97529.38
2023-05-07T09:01:19.540Z,97522.34
2023-05-07T09:03:48.261Z,97524.44
2023-05-07T09:06:18.682Z,97521.78
2023-05-07T09:08:51.775Z,97526.44
2023-05-07T09:11:27.224Z,97523.81
2023-05-07T09:14:04.029Z,97514.78
2023-05-07T09:16:33.831Z,97515.03
2023-05-07T09:19:02.221Z,97514.84
2023-05-07T09:21:32.789Z,97524.84
2023-05-07T09:24:01.109Z,97526.59
2023-05-07T09:26:29.511Z,97516.94
2023-05-07T09:29:09.811Z,97515.75
2023-05-07T09:31:39.974Z,97519.13
2023-05-07T09:34:09.068Z,97509.84
2023-05-07T09:36:38.688Z,97516.94
2023-05-07T09:39:07.318Z,97516.38
2023-05-07T09:41:35.648Z,97513.03
2023-05-07T09:44:03.928Z,97519.41
2023-05-07T09:46:32.755Z,97518.31
2023-05-07T09:49:01.373Z,97524.59
2023-05-07T09:51:32.506Z,97528.22
2023-05-07T09:54:04.400Z,97527.66
2023-05-07T09:56:32.798Z,97527.38
2023-05-07T09:59:01.952Z,97534.16
2023-05-07T10:01:30.196Z,97520.44
2023-05-07T10:03:59.994Z,97526.13
2023-05-07T10:06:28.402Z,97525.91
2023-05-07T10:08:56.660Z,97524.47
2023-05-07T10:11:26.417Z,97523.44
2023-05-07T10:13:55.185Z,97518.22
2023-05-07T10:16:23.708Z,97520.31
2023-05-07T10:18:52.046Z,97513.59
2023-05-07T10:21:21.083Z,97514.31
2023-05-07T10:23:52.275Z,97516.41
2023-05-07T10:26:21.435Z,97511.78
2023-05-07T10:28:53.208Z,97511.31
2023-05-07T10:31:30.008Z,97512.22
2023-05-07T10:34:01.308Z,97516.38
2023-05-07T10:36:29.603Z,97518.09
2023-05-07T10:38:57.871Z,97509.69
2023-05-07T10:41:26.205Z,97520.63
2023-05-07T10:43:57.293Z,97518.31
2023-05-07T10:46:25.612Z,97506.13
2023-05-07T10:49:13.270Z,97509.91
2023-05-07T10:51:41.678Z,97510.53
2023-05-07T10:54:23.295Z,97508.00
2023-05-07T10:56:52.226Z,97502.31
2023-05-07T10:59:43.973Z,97510.75
2023-05-07T11:02:15.424Z,97507.16
2023-05-07T11:04:43.791Z,97508.00
2023-05-07T11:07:32.963Z,97509.25
2023-05-07T11:10:05.918Z,97513.91
2023-05-07T11:12:50.831Z,97508.81
2023-05-07T11:15:43.105Z,97498.97
2023-05-07T11:18:11.798Z,97496.25
2023-05-07T11:20:47.716Z,97496.22
2023-05-07T11:24:09.248Z,97500.28
2023-05-07T11:26:47.729Z,97495.81
2023-05-07T11:29:19.402Z,97493.88
2023-05-07T11:31:53.150Z,97502.28
2023-05-07T11:34:24.913Z,97490.09
2023-05-07T11:36:53.157Z,97488.00
2023-05-07T11:39:39.527Z,97493.69
2023-05-07T11:42:09.196Z,97491.47
2023-05-07T11:44:44.639Z,97489.69
2023-05-07T11:47:19.310Z,97489.47
2023-05-07T11:49:49.074Z,97494.25
2023-05-07T11:52:17.341Z,97489.88
2023-05-07T11:54:51.500Z,97492.22
2023-05-07T11:57:20.234Z,97492.44
2023-05-07T11:59:49.283Z,97494.28
2023-05-07T12:02:19.637Z,97502.56
2023-05-07T12:04:47.919Z,97500.22
2023-05-07T12:07:16.741Z,97496.66
2023-05-07T12:09:50.526Z,97514.72
2023-05-07T12:12:19.573Z,97508.19
2023-05-07T12:14:48.127Z,97491.41
2023-05-07T12:17:16.602Z,97497.28
2023-05-07T12:19:46.623Z,97502.53
2023-05-07T12:22:14.853Z,97504.63
2023-05-07T12:24:47.285Z,97503.78
2023-05-07T12:27:15.840Z,97508.41
2023-05-07T12:29:47.409Z,97509.47
2023-05-07T12:32:16.233Z,97510.31
2023-05-07T12:34:46.054Z,97508.63
2023-05-07T12:37:15.000Z,97511.31
2023-05-07T12:39:47.238Z,97519.91
2023-05-07T12:42:17.597Z,97515.59
2023-05-07T12:44:47.967Z,97519.09
2023-05-07T12:47:17.382Z,97518.75
2023-05-07T12:49:48.169Z,97518.09
2023-05-07T12:52:16.681Z,97520.41
2023-05-07T12:54:45.555Z,97526.94
2023-05-07T12:57:13.787Z,97531.94
2023-05-07T12:59:42.677Z,97525.38
2023-05-07T13:02:11.142Z,97530.19
2023-05-07T13:04:39.757Z,97533.09
2023-05-07T13:07:09.477Z,97528.16
2023-05-07T13:09:38.416Z,97530.19
2023-05-07T13:12:17.687Z,97526.25
2023-05-07T13:14:47.119Z,97537.34
2023-05-07T13:17:15.637Z,97544.69
2023-05-07T13:19:43.873Z,97541.81
2023-05-07T13:22:13.606Z,97541.75
2023-05-07T13:24:42.918Z,97538.00
2023-05-07T13:27:11.497Z,97542.28
2023-05-07T13:29:41.129Z,97552.47
2023-05-07T13:32:10.454Z,97545.59
2023-05-07T13:34:45.200Z,97550.25
2023-05-07T13:37:17.140Z,97547.34
2023-05-07T13:39:45.822Z,97547.06
2023-05-07T13:42:14.055Z,97551.69
2023-05-07T13:44:42.745Z,97555.31
2023-05-07T13:47:11.043Z,97551.59
2023-05-07T13:49:39.306Z,97547.00
2023-05-07T13:52:07.523Z,97551.41
2023-05-07T13:54:37.584Z,97556.94
2023-05-07T13:57:05.845Z,97557.91
2023-05-07T13:59:34.172Z,97564.69
2023-05-07T14:02:02.406Z,97575.06
2023-05-07T14:04:30.690Z,97577.63
2023-05-07T14:06:58.972Z,97574.22
2023-05-07T14:09:27.212Z,97575.94
2023-05-07T14:11:56.955Z,97584.78
2023-05-07T14:14:25.506Z,97578.59
2023-05-07T14:16:53.886Z,97582.09
2023-05-07T14:19:23.797Z,97581.88
2023-05-07T14:21:52.021Z,97584.38
2023-05-07T14:24:34.458Z,97585.53
2023-05-07T14:27:07.942Z,97599.00
2023-05-07T14:29:37.351Z,97600.75
2023-05-07T14:32:06.184Z,97594.84
2023-05-07T14:34:34.394Z,97589.81
2023-05-07T14:37:02.627Z,97594.59
2023-05-07T14:39:30.912Z,97588.25
2023-05-07T14:41:59.902Z,97592.19
2023-05-07T14:44:30.585Z,97592.44
2023-05-07T14:47:02.227Z,97591.88
2023-05-07T14:49:31.171Z,97593.56
2023-05-07T14:52:00.283Z,97603.63
2023-05-07T14:54:28.612Z,97590.97
2023-05-07T14:56:59.139Z,97601.09
2023-05-07T14:59:27.301Z,97598.72
2023-05-07T15:01:57.117Z,97602.16
2023-05-07T15:04:26.322Z,97590.63
2023-05-07T15:06:55.034Z,97606.31
2023-05-07T15:09:23.610Z,97593.97
2023-05-07T15:11:51.873Z,97597.88
2023-05-07T15:14:20.226Z,97595.66
2023-05-07T15:16:51.014Z,97593.97
2023-05-07T15:19:20.745Z,97610.66
2023-05-07T15:21:48.948Z,97622.06
2023-05-07T15:24:17.283Z,97618.63
2023-05-07T15:26:46.059Z,97622.81
2023-05-07T15:29:14.383Z,97629.19
2023-05-07T15:31:42.971Z,97620.19
2023-05-07T15:34:11.331Z,97629.34
2023-05-07T15:36:41.038Z,97628.84
2023-05-07T15:39:09.456Z,97619.66
2023-05-07T15:41:38.038Z,97615.78
2023-05-07T15:44:06.861Z,97622.34
2023-05-07T15:46:35.239Z,97615.94
2023-05-07T15:49:04.306Z,97618.53
2023-05-07T15:51:33.170Z,97625.00
2023-05-07T15:54:02.950Z,97623.53
2023-05-07T15:56:33.953Z,97627.16
2023-05-07T15:59:02.639Z,97632.06
2023-05-07T16:01:31.527Z,97628.97
2023-05-07T16:04:00.143Z,97636.16
2023-05-07T16:06:34.303Z,97632.53
2023-05-07T16:09:04.543Z,97627.88
2023-05-07T16:11:34.231Z,97627.34
2023-05-07T16:14:03.136Z,97628.38
2023-05-07T16:16:34.307Z,97630.16
2023-05-07T16:19:02.700Z,97631.00
2023-05-07T16:21:31.561Z,97632.72
2023-05-07T16:23:59.872Z,97629.34
2023-05-07T16:26:29.919Z,97631.31
2023-05-07T16:28:58.163Z,97622.06
2023-05-07T16:31:26.737Z,97622.78
2023-05-07T16:33:55.069Z,97612.47
2023-05-07T16:36:23.429Z,97614.88
2023-05-07T16:38:51.877Z,97616.91
2023-05-07T16:41:20.334Z,97621.53
2023-05-07T16:43:49.971Z,97619.03
2023-05-07T16:46:18.379Z,97620.13
2023-05-07T16:48:46.745Z,97619.63
2023-05-07T16:51:15.004Z,97615.19
2023-05-07T16:53:43.282Z,97616.66
2023-05-07T16:56:11.527Z,97623.41
2023-05-07T16:58:39.820Z,97624.50
2023-05-07T17:01:11.662Z,97625.78
2023-05-07T17:03:40.096Z,97630.88
2023-05-07T17:06:14.168Z,97631.00
2023-05-07T17:08:43.237Z,97633.72
2023-05-07T17:11:11.653Z,97637.13
2023-05-07T17:13:41.188Z,97634.13
2023-05-07T17:16:11.236Z,97641.47
2023-05-07T17:18:39.521Z,97642.97
2023-05-07T17:21:07.798Z,97644.81
2023-05-07T17:23:35.963Z,97649.06
2023-05-07T17:26:04.323Z,97665.06
2023-05-07T17:28:32.696Z,97657.63
2023-05-07T17:31:01.434Z,97657.94
2023-05-07T17:33:31.130Z,97662.09
2023-05-07T17:35:59.677Z,97668.28
2023-05-07T17:38:28.021Z,97676.69
2023-05-07T17:40:56.341Z,97684.50
2023-05-07T17:43:24.736Z,97675.81
2023-05-07T17:45:53.381Z,97690.78
2023-05-07T17:48:26.338Z,97690.06
2023-05-07T17:51:01.899Z,97694.94
2023-05-07T17:53:30.130Z,97691.81
2023-05-07T17:55:58.365Z,97700.75
2023-05-07T17:58:27.367Z,97698.19
2023-05-07T18:00:55.726Z,97694.06
2023-05-07T18:03:25.096Z,97695.28
2023-05-07T18:05:56.532Z,97703.59
2023-05-07T18:08:24.908Z,97699.00
2023-05-07T18:10:53.172Z,97696.72
2023-05-07T18:13:21.529Z,97699.41
2023-05-07T18:15:51.195Z,97702.50
2023-05-07T18:18:19.958Z,97710.81
2023-05-07T18:20:50.924Z,97712.81
2023-05-07T18:23:22.879Z,97716.06
2023-05-07T18:25:51.363Z,97711.59
2023-05-07T18:28:19.739Z,97721.69
2023-05-07T18:30:47.922Z,97724.75
2023-05-07T18:33:16.350Z,97727.13
2023-05-07T18:35:46.075Z,97719.81
2023-05-07T18:38:14.637Z,97729.28
2023-05-07T18:40:44.872Z,97734.03
2023-05-07T18:43:13.161Z,97733.50
2023-05-07T18:45:42.366Z,97734.34
2023-05-07T18:48:10.751Z,97738.09
2023-05-07T18:50:39.630Z,97742.84
2023-05-07T18:53:07.876Z,97743.81
2023-05-07T18:55:36.173Z,97749.75
2023-05-07T18:58:05.871Z,97752.28
2023-05-07T19:00:34.206Z,97753.44
2023-05-07T19:03:03.120Z,97753.81
2023-05-07T19:05:31.567Z,97766.84
2023-05-07T19:07:59.864Z,97773.25
2023-05-07T19:10:28.511Z,97767.53
2023-05-07T19:12:57.724Z,97767.84
2023-05-07T19:15:27.872Z,97780.53
2023-05-07T19:17:56.299Z,97780.84
2023-05-07T19:20:24.557Z,97782.91
2023-05-07T19:22:52.884Z,97792.19
2023-05-07T19:25:21.476Z,97790.16
2023-05-07T19:27:51.074Z,97795.91
2023-05-07T19:30:19.574Z,97803.34
2023-05-07T19:32:49.450Z,97803.88
2023-05-07T19:35:17.811Z,97803.66
2023-05-07T19:37:46.522Z,97806.72
2023-05-07T19:40:15.485Z,97804.00
2023-05-07T19:42:43.861Z,97812.78
2023-05-07T19:45:13.119Z,97825.59
2023-05-07T19:47:41.614Z,97822.06
2023-05-07T19:50:12.172Z,97832.06
2023-05-07T19:52:40.564Z,97833.22
2023-05-07T19:55:10.000Z,97835.72
2023-05-07T19:57:38.508Z,97840.13
2023-05-07T20:00:08.402Z,97846.44
2023-05-07T20:02:36.685Z,97849.56
2023-05-07T20:05:05.240Z,97849.03
2023-05-07T20:07:36.179Z,97848.69
2023-05-07T20:10:04.647Z,97846.41
2023-05-07T20:12:32.935Z,97851.56
2023-05-07T20:15:01.265Z,97852.47
2023-05-07T20:17:29.653Z,97843.53
2023-05-07T20:19:58.101Z,97861.84
2023-05-07T20:22:26.412Z,97854.78
2023-05-07T20:24:56.148Z,97866.03
2023-05-07T20:27:26.027Z,97865.03
2023-05-07T20:29:54.585Z,97877.56
2023-05-07T20:32:26.117Z,97878.66
2023-05-07T20:34:54.805Z,97878.66
2023-05-07T20:37:22.979Z,97881.63
2023-05-07T20:39:52.740Z,97884.66
2023-05-07T20:42:39.742Z,97886.50
2023-05-07T20:45:09.756Z,97885.06
2023-05-07T20:47:38.119Z,97885.75
2023-05-07T20:50:17.415Z,97886.31
2023-05-07T20:52:46.454Z,97891.88
2023-05-07T20:55:14.773Z,97890.84
2023-05-07T20:57:45.841Z,97896.84
2023-05-07T21:00:16.002Z,97895.94
2023-05-07T21:02:45.271Z,97902.63
2023-05-07T21:05:20.729Z,97910.56
2023-05-07T21:07:49.002Z,97910.88
2023-05-07T21:10:17.225Z,97918.44
2023-05-07T21:13:04.486Z,97917.13
2023-05-07T21:15:32.728Z,97925.78
2023-05-07T21:18:01.022Z,97928.81
2023-05-07T21:20:30.536Z,97925.19
2023-05-07T21:22:58.853Z,97930.38
2023-05-07T21:25:27.175Z,97937.06
2023-05-07T21:27:55.468Z,97936.22
2023-05-07T21:30:25.215Z,97934.38
2023-05-07T21:32:55.711Z,97933.22
2023-05-07T21:35:24.192Z,97927.28
2023-05-07T21:37:52.442Z,97933.44
2023-05-07T21:40:22.477Z,97929.25
2023-05-07T21:42:53.070Z,97931.88
2023-05-07T21:45:21.523Z,97937.06
2023-05-07T21:47:51.134Z,97927.13
2023-05-07T21:50:19.611Z,97937.28
2023-05-07T21:52:55.361Z,97933.44
2023-05-07T21:55:23.748Z,97926.53
2023-05-07T21:58:04.267Z,97929.72
2023-05-07T22:00:34.140Z,97933.44
2023-05-07T22:03:03.970Z,97924.72
2023-05-07T22:05:32.366Z,97928.72
2023-05-07T22:08:01.179Z,97926.28
2023-05-07T22:10:29.844Z,97928.50
2023-05-07T22:12:58.087Z,97930.97
2023-05-07T22:15:26.991Z,97933.31
2023-05-07T22:17:55.330Z,97929.25
2023-05-07T22:20:25.122Z,97925.63
2023-05-07T22:22:54.734Z,97933.66
2023-05-07T22:25:23.126Z,97926.13
2023-05-07T22:27:51.611Z,97931.28
2023-05-07T22:30:19.999Z,97930.97
2023-05-07T22:32:48.324Z,97927.19
2023-05-07T22:35:16.663Z,97926.28
2023-05-07T22:37:46.644Z,97926.28
2023-05-07T22:40:19.001Z,97932.19
2023-05-07T22:42:47.412Z,97927.56
2023-05-07T22:45:15.773Z,97921.03
2023-05-07T22:47:52.206Z,97925.50
2023-05-07T22:50:20.685Z,97923.88
2023-05-07T22:52:50.441Z,97923.94
2023-05-07T22:55:18.982Z,97920.59
2023-05-07T22:57:47.486Z,97917.41
2023-05-07T23:00:16.418Z,97925.28
2023-05-07T23:02:45.197Z,97920.84
2023-05-07T23:05:13.643Z,97919.47
2023-05-07T23:07:42.178Z,97926.13
2023-05-07T23:10:12.525Z,97913.16
2023-05-07T23:12:40.958Z,97919.53
2023-05-07T23:15:10.680Z,97904.81
2023-05-07T23:17:39.399Z,97907.28
2023-05-07T23:20:09.458Z,97907.22
2023-05-07T23:22:37.726Z,97909.66
2023-05-07T23:25:08.805Z,97904.88
2023-05-07T23:27:38.578Z,97907.47
2023-05-07T23:30:08.329Z,97918.25
2023-05-07T23:32:36.600Z,97916.31
2023-05-07T23:35:05.143Z,97912.75
2023-05-07T23:37:33.379Z,97908.72
2023-05-07T23:40:01.637Z,97907.59
2023-05-07T23:42:29.853Z,97909.59
2023-05-07T23:44:59.497Z,97910.38
2023-05-07T23:47:27.829Z,97914.94
2023-05-07T23:49:56.086Z,97916.34
2023-05-07T23:52:24.947Z,97909.78
2023-05-07T23:54:53.143Z,97915.25
2023-05-07T23:57:21.398Z,97911.22
2023-05-07T23:59:49.919Z,97907.06
